createdAt,value
2018-04-04T00:02:09.304Z,11.40
2018-04-04T00:04:36.777Z,11.30
2018-04-04T00:07:04.219Z,11.20
2018-04-04T00:09:31.657Z,11.20
2018-04-04T00:11:59.192Z,11.10
2018-04-04T00:14:27.426Z,10.90
2018-04-04T00:16:54.928Z,10.90
2018-04-04T00:19:23.149Z,10.80
2018-04-04T00:24:46.161Z,10.70
2018-04-04T00:27:13.718Z,10.60
2018-04-04T00:29:41.162Z,10.60
2018-04-04T00:32:08.609Z,10.50
2018-04-04T00:34:36.140Z,10.50
2018-04-04T00:37:03.630Z,10.40
2018-04-04T00:39:31.058Z,10.40
2018-04-04T00:41:58.497Z,10.30
2018-04-04T00:44:26.702Z,10.10
2018-04-04T00:46:54.300Z,10.10
2018-04-04T00:49:21.754Z,10.10
2018-04-04T00:51:49.214Z,10.00
2018-04-04T00:54:16.659Z,9.90
2018-04-04T00:56:44.191Z,9.90
2018-04-04T00:59:11.625Z,9.80
2018-04-04T01:01:39.089Z,9.70
2018-04-04T01:04:06.520Z,9.60
2018-04-04T01:06:34.918Z,9.50
2018-04-04T01:09:03.123Z,9.50
2018-04-04T01:11:30.554Z,9.50
2018-04-04T01:13:58.018Z,9.40
2018-04-04T01:16:25.453Z,9.40
2018-04-04T01:18:53.669Z,9.30
2018-04-04T01:21:21.203Z,9.20
2018-04-04T01:23:49.425Z,9.20
2018-04-04T01:26:16.860Z,9.20
2018-04-04T01:28:44.350Z,9.20
2018-04-04T01:31:11.785Z,9.10
2018-04-04T01:33:39.247Z,9.10
2018-04-04T01:36:06.681Z,9.00
2018-04-04T01:38:34.172Z,8.90
2018-04-04T01:41:01.613Z,8.80
2018-04-04T01:43:29.109Z,8.80
2018-04-04T01:46:22.564Z,8.80
2018-04-04T01:48:50.028Z,8.70
2018-04-04T01:51:17.466Z,8.70
2018-04-04T01:53:46.525Z,8.70
2018-04-04T01:56:13.964Z,8.60
2018-04-04T01:58:42.262Z,8.50
2018-04-04T02:01:09.698Z,8.50
2018-04-04T02:03:37.942Z,8.40
2018-04-04T02:09:08.670Z,8.40
2018-04-04T02:11:36.108Z,8.30
2018-04-04T02:14:03.537Z,8.20
2018-04-04T02:16:33.141Z,8.10
2018-04-04T02:19:01.347Z,8.10
2018-04-04T02:21:28.833Z,8.10
2018-04-04T02:23:56.273Z,8.00
2018-04-04T02:26:23.737Z,8.00
2018-04-04T02:28:51.180Z,7.90
2018-04-04T02:31:18.807Z,7.90
2018-04-04T02:33:46.259Z,7.80
2018-04-04T02:36:13.680Z,7.80
2018-04-04T02:38:41.190Z,7.70
2018-04-04T02:41:09.421Z,7.70
2018-04-04T02:43:36.862Z,7.60
2018-04-04T02:46:17.110Z,7.60
2018-04-04T02:48:44.571Z,7.50
2018-04-04T02:51:12.092Z,7.50
2018-04-04T02:53:40.302Z,7.40
2018-04-04T02:56:07.813Z,7.40
2018-04-04T02:58:35.245Z,7.40
2018-04-04T03:01:02.778Z,7.30
2018-04-04T03:03:30.217Z,7.30
2018-04-04T03:05:57.668Z,7.30
2018-04-04T03:08:25.104Z,7.30
2018-04-04T03:10:52.556Z,7.20
2018-04-04T03:13:20.009Z,7.20
2018-04-04T03:15:53.704Z,7.20
2018-04-04T03:18:21.170Z,7.10
2018-04-04T03:20:48.592Z,7.10
2018-04-04T03:23:16.068Z,7.10
2018-04-04T03:25:43.520Z,7.10
2018-04-04T03:28:10.954Z,7.00
2018-04-04T03:30:38.421Z,7.00
2018-04-04T03:33:05.912Z,7.00
2018-04-04T03:35:33.340Z,6.90
2018-04-04T03:38:00.806Z,6.90
2018-04-04T03:40:28.243Z,6.90
2018-04-04T03:42:56.024Z,6.90
2018-04-04T03:45:23.473Z,6.90
2018-04-04T03:47:51.006Z,6.80
2018-04-04T03:50:18.447Z,6.80
2018-04-04T03:52:46.661Z,6.80
2018-04-04T03:55:14.513Z,6.80
2018-04-04T03:57:41.945Z,6.70
2018-04-04T04:00:10.161Z,6.70
2018-04-04T04:02:37.645Z,6.70
2018-04-04T04:05:05.089Z,6.70
2018-04-04T04:07:32.538Z,6.70
2018-04-04T04:10:06.094Z,6.70
2018-04-04T04:12:33.492Z,6.70
2018-04-04T04:15:00.932Z,6.70
2018-04-04T04:17:28.393Z,6.70
2018-04-04T04:19:55.965Z,6.70
2018-04-04T04:22:23.411Z,6.70
2018-04-04T04:25:04.536Z,6.70
2018-04-04T04:27:32.984Z,6.70
2018-04-04T04:30:02.534Z,6.70
2018-04-04T04:32:29.969Z,6.70
2018-04-04T04:34:57.497Z,6.70
2018-04-04T04:37:24.933Z,6.70
2018-04-04T04:39:52.412Z,6.70
2018-04-04T04:42:19.854Z,6.70
2018-04-04T04:44:47.329Z,6.70
2018-04-04T04:47:15.697Z,6.60
2018-04-04T04:49:43.134Z,6.60
2018-04-04T04:52:10.724Z,6.60
2018-04-04T04:54:38.404Z,6.60
2018-04-04T04:57:06.773Z,6.60
2018-04-04T04:59:39.051Z,6.60
2018-04-04T05:02:06.994Z,6.60
2018-04-04T05:04:41.284Z,6.60
2018-04-04T05:07:09.356Z,6.70
2018-04-04T05:09:36.818Z,6.70
2018-04-04T05:18:00.872Z,7.00
2018-04-04T05:20:28.909Z,7.00
2018-04-04T05:22:57.440Z,7.20
2018-04-04T05:25:24.918Z,7.20
2018-04-04T05:30:43.570Z,7.40
2018-04-04T05:33:11.049Z,7.40
2018-04-04T05:35:38.489Z,7.50
2018-04-04T05:38:05.957Z,7.50
2018-04-04T05:40:33.501Z,7.60
2018-04-04T05:43:00.993Z,7.70
2018-04-04T05:45:28.387Z,7.70
2018-04-04T05:47:55.892Z,7.80
2018-04-04T05:50:23.320Z,7.80
2018-04-04T05:52:57.051Z,7.90
2018-04-04T05:55:24.479Z,8.00
2018-04-04T05:58:00.713Z,8.10
2018-04-04T06:00:29.886Z,8.10
2018-04-04T06:02:57.316Z,8.10
2018-04-04T06:05:24.768Z,8.20
2018-04-04T06:07:52.210Z,8.20
2018-04-04T06:10:19.714Z,8.30
2018-04-04T06:12:47.156Z,8.30
2018-04-04T06:15:14.629Z,8.30
2018-04-04T06:17:44.022Z,8.40
2018-04-04T06:20:11.455Z,8.40
2018-04-04T06:22:38.909Z,8.50
2018-04-04T06:25:06.529Z,8.50
2018-04-04T06:27:34.733Z,8.60
2018-04-04T06:30:02.161Z,8.60
2018-04-04T06:32:30.384Z,8.70
2018-04-04T06:34:57.845Z,8.70
2018-04-04T06:37:25.286Z,8.80
2018-04-04T06:39:52.881Z,8.80
2018-04-04T06:42:20.314Z,8.80
2018-04-04T06:44:47.757Z,8.80
2018-04-04T06:47:17.141Z,8.80
2018-04-04T06:49:44.572Z,8.80
2018-04-04T06:52:12.009Z,8.80
2018-04-04T06:54:39.961Z,8.90
2018-04-04T06:57:07.388Z,8.90
2018-04-04T06:59:35.273Z,8.90
2018-04-04T07:02:02.796Z,8.90
2018-04-04T07:04:31.000Z,8.90
2018-04-04T07:06:58.473Z,8.90
2018-04-04T07:09:25.914Z,8.90
2018-04-04T07:11:53.347Z,8.90
2018-04-04T07:14:24.202Z,8.90
2018-04-04T07:16:51.589Z,8.90
2018-04-04T07:19:19.029Z,8.90
2018-04-04T07:21:46.500Z,8.90
2018-04-04T07:24:13.947Z,8.90
2018-04-04T07:26:41.400Z,8.90
2018-04-04T07:29:08.847Z,8.90
2018-04-04T07:31:36.390Z,8.90
2018-04-04T07:34:04.593Z,8.90
2018-04-04T07:36:32.033Z,8.90
2018-04-04T07:39:04.349Z,9.00
2018-04-04T07:41:31.782Z,9.00
2018-04-04T07:43:59.221Z,9.00
2018-04-04T07:46:26.725Z,9.00
2018-04-04T07:48:54.185Z,9.00
2018-04-04T07:51:21.625Z,9.00
2018-04-04T07:53:49.094Z,9.10
2018-04-04T07:56:16.539Z,9.10
2018-04-04T07:58:44.120Z,9.10
2018-04-04T08:01:11.901Z,9.20
2018-04-04T08:03:39.387Z,9.20
2018-04-04T08:06:06.821Z,9.20
2018-04-04T08:08:45.852Z,9.30
2018-04-04T08:11:14.068Z,9.40
2018-04-04T08:13:41.502Z,9.30
2018-04-04T08:16:09.115Z,9.40
2018-04-04T08:18:36.548Z,9.40
2018-04-04T08:21:03.999Z,9.50
2018-04-04T08:23:31.477Z,9.50
2018-04-04T08:25:58.916Z,9.60
2018-04-04T08:28:26.361Z,9.70
2018-04-04T08:30:53.837Z,9.70
2018-04-04T08:33:21.282Z,9.70
2018-04-04T08:35:48.721Z,9.80
2018-04-04T08:38:17.019Z,9.90
2018-04-04T08:40:44.478Z,9.90
2018-04-04T08:43:11.914Z,9.90
2018-04-04T08:45:43.115Z,10.00
2018-04-04T08:48:10.555Z,10.10
2018-04-04T08:50:37.990Z,10.10
2018-04-04T08:53:05.468Z,10.20
2018-04-04T08:55:32.921Z,10.20
2018-04-04T08:58:00.372Z,10.30
2018-04-04T09:00:28.159Z,10.30
2018-04-04T09:02:55.642Z,10.30
2018-04-04T09:05:23.090Z,10.40
2018-04-04T09:07:50.667Z,10.40
2018-04-04T09:10:18.108Z,10.40
2018-04-04T09:18:45.377Z,10.60
2018-04-04T09:21:12.841Z,10.70
2018-04-04T09:23:40.356Z,10.70
2018-04-04T09:26:07.835Z,10.80
2018-04-04T09:28:35.281Z,11.00
2018-04-04T09:31:02.788Z,11.10
2018-04-04T09:33:30.237Z,11.20
2018-04-04T09:35:57.682Z,11.40
2018-04-04T09:38:25.189Z,11.60
2018-04-04T09:40:53.416Z,11.70
2018-04-04T09:43:20.874Z,11.70
2018-04-04T09:45:48.313Z,11.80
2018-04-04T09:48:15.849Z,11.90
2018-04-04T09:50:43.290Z,12.00
2018-04-04T09:53:11.497Z,12.40
2018-04-04T09:55:38.964Z,12.30
2018-04-04T09:58:06.433Z,12.50
2018-04-04T10:00:40.246Z,12.80
2018-04-04T10:11:40.540Z,13.10
2018-04-04T10:14:08.004Z,13.20
2018-04-04T10:16:35.449Z,13.20
2018-04-04T10:19:02.973Z,13.20
2018-04-04T10:21:30.417Z,13.20
2018-04-04T10:23:57.880Z,13.20
2018-04-04T10:26:25.316Z,13.10
2018-04-04T10:28:53.544Z,13.10
2018-04-04T10:31:20.989Z,13.10
2018-04-04T10:33:48.480Z,13.10
2018-04-04T10:36:15.917Z,13.10
2018-04-04T10:38:43.429Z,13.10
2018-04-04T10:41:11.638Z,13.10
2018-04-04T10:43:39.108Z,13.10
2018-04-04T10:46:06.553Z,13.10
2018-04-04T10:48:34.000Z,13.10
2018-04-04T10:51:01.530Z,13.10
2018-04-04T10:53:31.555Z,13.10
2018-04-04T10:55:59.831Z,13.20
2018-04-04T10:58:27.233Z,13.20
2018-04-04T11:00:54.728Z,13.20
2018-04-04T11:03:22.170Z,13.20
2018-04-04T11:05:49.609Z,13.30
2018-04-04T11:08:17.185Z,13.30
2018-04-04T11:10:44.668Z,13.30
2018-04-04T11:13:12.108Z,13.30
2018-04-04T11:15:39.563Z,13.30
2018-04-04T11:18:07.029Z,13.30
2018-04-04T11:20:34.594Z,13.30
2018-04-04T11:23:02.037Z,13.30
2018-04-04T11:25:29.503Z,13.30
2018-04-04T11:27:56.957Z,13.30
2018-04-04T11:30:24.540Z,13.20
2018-04-04T11:32:52.764Z,13.20
2018-04-04T11:35:20.198Z,13.20
2018-04-04T11:37:47.729Z,13.10
2018-04-04T11:40:15.935Z,13.10
2018-04-04T11:42:43.448Z,13.00
2018-04-04T11:45:10.895Z,13.00
2018-04-04T11:47:38.461Z,13.00
2018-04-04T11:50:05.900Z,12.90
2018-04-04T11:52:33.341Z,12.90
2018-04-04T11:55:00.942Z,12.90
2018-04-04T11:57:28.413Z,12.90
2018-04-04T11:59:56.646Z,12.80
2018-04-04T12:02:24.101Z,12.80
2018-04-04T12:04:51.545Z,12.70
2018-04-04T12:07:19.038Z,12.70
2018-04-04T12:09:46.502Z,12.70
2018-04-04T12:12:14.008Z,12.70
2018-04-04T12:14:41.665Z,12.60
2018-04-04T12:17:09.702Z,12.60
2018-04-04T12:19:37.136Z,12.70
2018-04-04T12:22:04.590Z,12.70
2018-04-04T12:24:32.129Z,12.70
2018-04-04T12:26:59.572Z,12.70
2018-04-04T12:29:27.045Z,12.70
2018-04-04T12:31:54.487Z,12.70
2018-04-04T12:34:24.365Z,12.80
2018-04-04T12:36:51.801Z,12.80
2018-04-04T12:42:19.877Z,12.80
2018-04-04T12:44:47.398Z,12.80
2018-04-04T12:47:15.594Z,12.80
2018-04-04T12:49:43.065Z,12.70
2018-04-04T12:52:10.509Z,12.70
2018-04-04T12:54:38.738Z,12.70
2018-04-04T12:57:07.605Z,12.60
2018-04-04T12:59:35.105Z,12.60
2018-04-04T13:02:03.364Z,12.60
2018-04-04T13:04:41.718Z,12.50
2018-04-04T13:07:09.181Z,12.50
2018-04-04T13:12:49.141Z,12.50
2018-04-04T13:15:16.873Z,12.50
2018-04-04T13:17:44.318Z,12.40
2018-04-04T13:20:11.757Z,12.40
2018-04-04T13:22:39.241Z,12.40
2018-04-04T13:25:06.690Z,12.40
2018-04-04T13:27:34.129Z,12.30
2018-04-04T13:30:01.697Z,12.30
2018-04-04T13:32:29.134Z,12.30
2018-04-04T13:34:56.580Z,12.30
2018-04-04T13:37:24.058Z,12.30
2018-04-04T13:40:02.738Z,12.20
2018-04-04T13:42:30.982Z,12.30
2018-04-04T13:44:58.424Z,12.30
2018-04-04T13:47:26.177Z,12.30
2018-04-04T13:49:53.626Z,12.30
2018-04-04T13:52:37.056Z,12.30
2018-04-04T13:55:04.649Z,12.30
2018-04-04T13:57:35.804Z,12.30
2018-04-04T14:00:03.249Z,12.30
2018-04-04T14:02:30.700Z,12.30
2018-04-04T14:11:02.729Z,12.30
2018-04-04T14:13:30.974Z,12.30
2018-04-04T14:15:58.417Z,12.30
2018-04-04T14:24:18.968Z,12.40
2018-04-04T14:26:49.087Z,12.50
2018-04-04T14:29:16.529Z,12.50
2018-04-04T14:31:43.981Z,12.50
2018-04-04T14:34:11.580Z,12.50
2018-04-04T14:36:39.085Z,12.60
2018-04-04T14:39:06.536Z,12.50
2018-04-04T14:41:34.065Z,12.60
2018-04-04T14:44:01.559Z,12.50
2018-04-04T14:46:28.993Z,12.50
2018-04-04T14:48:57.283Z,12.50
2018-04-04T14:51:24.795Z,12.50
2018-04-04T14:53:52.264Z,12.50
2018-04-04T14:56:21.310Z,12.60
2018-04-04T14:58:49.091Z,12.50
2018-04-04T15:01:16.545Z,12.50
2018-04-04T15:06:47.924Z,12.40
2018-04-04T15:09:15.399Z,12.30
2018-04-04T15:11:43.061Z,12.30
2018-04-04T15:14:10.298Z,12.30
2018-04-04T15:16:38.024Z,12.40
2018-04-04T15:19:05.953Z,12.40
2018-04-04T15:21:33.422Z,12.40
2018-04-04T15:24:00.909Z,12.50
2018-04-04T15:26:29.157Z,12.60
2018-04-04T15:28:56.737Z,12.60
2018-04-04T15:31:24.974Z,12.80
2018-04-04T15:33:52.737Z,12.80
2018-04-04T15:36:20.206Z,12.80
2018-04-04T15:38:47.668Z,12.90
2018-04-04T15:41:16.825Z,12.90
2018-04-04T15:49:39.288Z,12.80
2018-04-04T15:52:07.020Z,12.80
2018-04-04T15:54:35.265Z,12.80
2018-04-04T15:57:03.237Z,12.80
2018-04-04T15:59:30.683Z,12.80
2018-04-04T16:01:58.248Z,12.80
2018-04-04T16:04:26.040Z,12.70
2018-04-04T16:06:53.633Z,12.70
2018-04-04T16:12:22.092Z,12.80
2018-04-04T16:14:50.385Z,12.80
2018-04-04T16:17:17.843Z,12.80
2018-04-04T16:19:46.108Z,12.70
2018-04-04T16:31:04.484Z,12.90
2018-04-04T16:33:32.075Z,12.90
2018-04-04T16:35:59.562Z,12.90
2018-04-04T16:38:27.768Z,12.80
2018-04-04T16:40:55.289Z,12.90
2018-04-04T16:43:23.513Z,12.80
2018-04-04T16:45:50.966Z,12.80
2018-04-04T16:48:19.228Z,12.70
2018-04-04T16:50:46.693Z,12.80
2018-04-04T16:53:14.190Z,12.70
2018-04-04T16:55:41.706Z,12.70
2018-04-04T16:58:09.137Z,12.70
2018-04-04T17:00:37.343Z,12.70
2018-04-04T17:03:04.850Z,12.70
2018-04-04T17:05:32.295Z,12.70
2018-04-04T17:08:15.737Z,12.70
2018-04-04T17:10:43.322Z,12.70
2018-04-04T17:13:11.552Z,12.60
2018-04-04T17:15:39.048Z,12.60
2018-04-04T17:18:06.552Z,12.60
2018-04-04T17:20:34.016Z,12.50
2018-04-04T17:23:01.457Z,12.50
2018-04-04T17:25:29.737Z,12.40
2018-04-04T17:27:57.171Z,12.40
2018-04-04T17:30:24.693Z,12.30
2018-04-04T17:32:52.107Z,12.30
2018-04-04T17:35:20.313Z,12.30
2018-04-04T17:37:47.924Z,12.30
2018-04-04T17:40:15.417Z,12.20
2018-04-04T17:42:42.833Z,12.20
2018-04-04T17:45:11.088Z,12.10
2018-04-04T17:47:38.531Z,12.10
2018-04-04T17:50:06.012Z,12.00
2018-04-04T17:52:34.243Z,11.90
2018-04-04T17:55:01.679Z,11.90
2018-04-04T17:57:29.338Z,11.90
2018-04-04T17:59:56.830Z,11.80
2018-04-04T18:02:24.269Z,11.80
2018-04-04T18:04:51.737Z,11.70
2018-04-04T18:07:23.169Z,11.70
2018-04-04T18:09:50.611Z,11.60
2018-04-04T18:12:18.135Z,11.60
2018-04-04T18:14:45.633Z,11.50
2018-04-04T18:17:15.364Z,11.50
2018-04-04T18:19:42.832Z,11.40
2018-04-04T18:22:10.545Z,11.40
2018-04-04T18:24:38.751Z,11.30
2018-04-04T18:27:06.192Z,11.30
2018-04-04T18:29:38.808Z,11.20
2018-04-04T18:32:06.246Z,11.20
2018-04-04T18:34:33.681Z,11.10
2018-04-04T18:37:01.322Z,11.10
2018-04-04T18:39:29.520Z,11.00
2018-04-04T18:41:56.969Z,11.00
2018-04-04T18:44:25.206Z,10.90
2018-04-04T18:46:52.644Z,10.90
2018-04-04T18:49:20.158Z,10.80
2018-04-04T18:51:47.588Z,10.80
2018-04-04T18:54:15.043Z,10.80
2018-04-04T18:59:33.233Z,10.70
2018-04-04T19:02:01.441Z,10.60
2018-04-04T19:04:28.876Z,10.60
2018-04-04T19:06:56.356Z,10.50
2018-04-04T19:09:23.972Z,10.50
2018-04-04T19:11:52.189Z,10.50
2018-04-04T19:14:19.681Z,10.40
2018-04-04T19:16:47.122Z,10.40
2018-04-04T19:22:07.058Z,10.40
2018-04-04T19:24:34.560Z,10.40
2018-04-04T19:27:02.025Z,10.30
2018-04-04T19:29:29.507Z,10.30
2018-04-04T19:31:57.075Z,10.30
2018-04-04T19:34:24.755Z,10.20
2018-04-04T19:36:52.198Z,10.20
2018-04-04T19:39:19.637Z,10.20
2018-04-04T19:41:48.205Z,10.20
2018-04-04T19:44:15.697Z,10.20
2018-04-04T19:46:43.147Z,10.20
2018-04-04T19:49:10.681Z,10.10
2018-04-04T19:51:39.015Z,10.10
2018-04-04T19:54:10.194Z,10.10
2018-04-04T19:56:37.916Z,10.10
2018-04-04T19:59:22.361Z,10.10
2018-04-04T20:01:49.894Z,10.10
2018-04-04T20:04:17.354Z,10.10
2018-04-04T20:06:44.818Z,10.00
2018-04-04T20:09:12.301Z,10.10
2018-04-04T20:11:39.782Z,10.00
2018-04-04T20:14:13.056Z,10.00
2018-04-04T20:16:40.614Z,10.00
2018-04-04T20:19:08.060Z,10.00
2018-04-04T20:21:53.246Z,10.00
2018-04-04T20:24:20.706Z,10.00
2018-04-04T20:26:48.210Z,10.00
2018-04-04T20:29:15.646Z,10.00
2018-04-04T20:31:43.100Z,9.90
2018-04-04T20:34:11.341Z,9.90
2018-04-04T20:36:38.840Z,9.90
2018-04-04T20:39:06.279Z,9.90
2018-04-04T20:41:34.588Z,9.90
2018-04-04T20:44:02.017Z,9.90
2018-04-04T20:46:30.244Z,9.90
2018-04-04T20:48:57.683Z,9.80
2018-04-04T20:51:27.078Z,9.80
2018-04-04T20:53:54.522Z,9.90
2018-04-04T20:56:21.957Z,9.80
2018-04-04T20:58:49.593Z,9.90
2018-04-04T21:01:17.041Z,9.80
2018-04-04T21:03:44.481Z,9.80
2018-04-04T21:06:11.982Z,9.80
2018-04-04T21:08:39.445Z,9.80
2018-04-04T21:11:06.897Z,9.80
2018-04-04T21:13:37.841Z,9.80
2018-04-04T21:16:06.038Z,9.90
2018-04-04T21:18:38.305Z,9.90
2018-04-04T21:21:06.220Z,9.90
2018-04-04T21:23:33.863Z,9.90
2018-04-04T21:26:01.552Z,9.90
2018-04-04T21:28:29.247Z,9.90
2018-04-04T21:30:56.995Z,9.90
2018-04-04T21:33:24.933Z,10.00
2018-04-04T21:35:52.683Z,9.90
2018-04-04T21:38:20.216Z,10.00
2018-04-04T21:40:47.985Z,10.00
2018-04-04T21:43:15.850Z,10.00
2018-04-04T21:45:43.528Z,10.00
2018-04-04T21:48:11.174Z,10.00
2018-04-04T21:50:38.810Z,10.00
2018-04-04T21:53:06.532Z,10.00
2018-04-04T21:55:34.334Z,10.00
2018-04-04T21:58:02.917Z,10.00
2018-04-04T22:00:30.664Z,10.10
2018-04-04T22:02:59.115Z,10.00
2018-04-04T22:05:27.596Z,10.00
2018-04-04T22:07:55.592Z,10.00
2018-04-04T22:10:23.339Z,10.00
2018-04-04T22:12:56.045Z,10.10
2018-04-04T22:15:23.808Z,10.10
2018-04-04T22:17:51.436Z,10.00
2018-04-04T22:20:19.142Z,10.00
2018-04-04T22:22:46.915Z,10.00
2018-04-04T22:25:14.615Z,10.00
2018-04-04T22:27:42.238Z,10.00
2018-04-04T22:30:10.570Z,9.90
2018-04-04T22:32:38.285Z,9.90
2018-04-04T22:35:06.078Z,9.90
2018-04-04T22:37:34.431Z,9.90
2018-04-04T22:40:02.218Z,9.90
2018-04-04T22:42:35.113Z,9.90
2018-04-04T22:45:02.656Z,9.80
2018-04-04T22:47:30.377Z,9.80
2018-04-04T22:49:58.165Z,9.80
2018-04-04T22:52:26.502Z,9.80
2018-04-04T22:54:55.031Z,9.80
2018-04-04T22:57:23.484Z,9.80
2018-04-04T22:59:52.504Z,9.80
2018-04-04T23:02:20.288Z,9.80
2018-04-04T23:04:48.015Z,9.80
2018-04-04T23:07:15.666Z,9.80
2018-04-04T23:09:44.100Z,9.80
2018-04-04T23:12:11.808Z,9.70
2018-04-04T23:14:39.339Z,9.70
2018-04-04T23:17:07.155Z,9.70
2018-04-04T23:19:34.764Z,9.70
2018-04-04T23:22:02.292Z,9.70
2018-04-04T23:24:31.842Z,9.60
2018-04-04T23:26:59.507Z,9.60
2018-04-04T23:29:27.141Z,9.60
2018-04-04T23:31:55.037Z,9.60
2018-04-04T23:34:22.644Z,9.60
2018-04-04T23:36:51.063Z,9.60
2018-04-04T23:39:19.477Z,9.50
2018-04-04T23:41:47.172Z,9.50
2018-04-04T23:44:15.115Z,9.50
2018-04-04T23:46:42.786Z,9.50
2018-04-04T23:49:10.812Z,9.50
2018-04-04T23:51:38.445Z,9.50
2018-04-04T23:54:06.371Z,9.50
2018-04-04T23:56:39.006Z,9.50
2018-04-04T23:59:13.463Z,9.40
